Time;durP1;ratioP1;P1;durP2;ratioP2;P2;SDS_P1;SDS_P2;PMS_P1;PMS_P2;Temp;Humidity;BMP_temperature;BMP_pressure;BME280_temperature;BME280_humidity;BME280_pressure;Samples;Min_cycle;Max_cycle;Signal;HPM_P1;HPM_P2
2023/10/10 00:01:44;;;;;;;25.60;18.23;;;;;;;24.92;44.50;100849.88;21168246;28;20036;-66
2023/10/10 00:11:48;;;;;;;27.70;17.70;;;;;;;24.91;44.79;100842.63;21167765;27;20077;-65
2023/10/10 00:21:54;;;;;;;25.92;16.73;;;;;;;24.74;45.05;100809.66;21155791;28;20532;-67
2023/10/10 00:31:58;;;;;;;19.98;14.43;;;;;;;24.90;44.72;100838.16;21131890;28;20077;-67
2023/10/10 00:42:19;;;;;;;18.83;13.50;;;;;;;24.83;45.08;100817.03;21166111;28;20039;-66
2023/10/10 00:52:21;;;;;;;24.45;13.57;;;;;;;24.85;44.89;100830.72;21164848;28;20032;-67
2023/10/10 01:02:26;;;;;;;14.30;11.10;;;;;;;24.89;44.99;100864.50;21137423;28;20032;-66
2023/10/10 01:12:35;;;;;;;19.08;11.40;;;;;;;24.80;45.11;100844.81;21155879;28;20035;-65
2023/10/10 01:22:40;;;;;;;12.68;9.95;;;;;;;24.88;45.08;100874.88;21158089;28;20093;-65
2023/10/10 01:32:41;;;;;;;10.55;8.57;;;;;;;24.88;45.21;100876.81;21160262;28;20052;-65
2023/10/10 01:42:53;;;;;;;10.73;7.85;;;;;;;24.86;45.16;100891.13;21157301;28;20491;-66
2023/10/10 01:52:56;;;;;;;10.43;7.95;;;;;;;24.77;44.88;100874.22;21159688;27;20044;-66
2023/10/10 02:03:01;;;;;;;11.10;7.38;;;;;;;24.85;45.46;100883.88;21149801;28;20104;-66
2023/10/10 02:13:07;;;;;;;10.07;6.53;;;;;;;24.84;45.27;100891.47;21153802;28;20440;-64
2023/10/10 02:23:10;;;;;;;8.55;6.47;;;;;;;24.84;45.11;100888.66;21152297;28;20048;-64
2023/10/10 02:33:24;;;;;;;9.40;6.82;;;;;;;24.85;45.31;100886.69;21158331;28;20110;-66
2023/10/10 02:43:46;;;;;;;7.35;6.03;;;;;;;24.74;45.30;100851.63;21099996;28;20035;-65
2023/10/10 02:53:47;;;;;;;6.57;5.00;;;;;;;24.84;45.26;100874.66;21126221;28;20495;-65
2023/10/10 03:03:51;;;;;;;9.73;4.85;;;;;;;24.84;44.98;100849.47;21148781;27;20040;-64
2023/10/10 03:14:00;;;;;;;7.25;4.07;;;;;;;24.82;45.09;100826.53;21168423;28;20402;-64
2023/10/10 03:34:30;;;;;;;6.00;4.32;;;;;;;24.80;45.37;100828.84;21148821;28;20031;-63
2023/10/10 05:28:15;;;;;;;5.40;2.75;;;;;;;24.71;45.48;100825.09;21157281;28;20043;-64
2023/10/10 05:38:16;;;;;;;3.72;2.90;;;;;;;24.59;45.43;100816.38;21119392;28;20035;-63
2023/10/10 05:48:18;;;;;;;3.63;2.88;;;;;;;24.70;45.29;100837.44;21146912;28;20043;-64
2023/10/10 05:58:20;;;;;;;3.83;3.08;;;;;;;24.71;45.25;100846.66;21122962;28;20065;-64
2023/10/10 06:08:21;;;;;;;3.10;2.53;;;;;;;24.68;44.99;100848.09;21160685;28;20100;-64
2023/10/10 06:18:25;;;;;;;3.40;2.53;;;;;;;24.69;45.08;100844.16;21165619;28;20436;-64
2023/10/10 06:28:28;;;;;;;3.03;2.35;;;;;;;24.68;44.72;100828.50;21171301;28;20045;-64
2023/10/10 06:38:32;;;;;;;3.88;2.65;;;;;;;24.65;44.84;100820.75;21117335;28;20040;-64
2023/10/10 06:48:40;;;;;;;2.47;2.20;;;;;;;24.62;44.80;100798.16;21124441;28;20040;-64
2023/10/10 06:58:45;;;;;;;3.08;2.40;;;;;;;24.64;44.83;100793.88;21175069;27;20035;-64
2023/10/10 07:09:03;;;;;;;2.67;2.22;;;;;;;24.59;44.92;100771.63;21173968;28;20043;-64
2023/10/10 07:19:19;;;;;;;2.83;2.50;;;;;;;24.56;44.84;100777.84;21173364;28;20040;-64
2023/10/10 07:29:27;;;;;;;5.13;2.50;;;;;;;24.61;44.82;100791.72;21170225;28;20039;-64
2023/10/10 07:39:32;;;;;;;3.05;2.45;;;;;;;24.60;44.79;100784.44;21140636;27;20044;-64
2023/10/10 07:49:40;;;;;;;2.20;2.00;;;;;;;24.59;44.73;100800.41;21155424;28;20093;-65
2023/10/10 07:59:41;;;;;;;2.42;1.98;;;;;;;24.58;44.77;100797.94;21147236;28;20036;-65
2023/10/10 08:09:42;;;;;;;3.20;2.20;;;;;;;24.57;44.70;100808.31;21169385;28;20027;-64
2023/10/10 08:19:51;;;;;;;2.17;1.98;;;;;;;24.46;44.55;100800.41;21168238;28;20027;-65
2023/10/10 08:29:55;;;;;;;2.53;2.00;;;;;;;24.54;44.76;100827.66;21164116;28;20044;-65
2023/10/10 08:40:02;;;;;;;2.17;1.98;;;;;;;24.52;44.41;100827.97;21166859;28;20073;-66
2023/10/10 08:50:06;;;;;;;2.15;1.95;;;;;;;24.43;44.63;100817.81;21145425;28;20040;-65
2023/10/10 09:00:17;;;;;;;2.05;1.85;;;;;;;24.49;44.64;100838.94;21143919;28;20054;-65
2023/10/10 09:10:28;;;;;;;1.92;1.75;;;;;;;24.46;44.83;100851.56;21131265;28;20047;-65
2023/10/10 09:20:30;;;;;;;2.25;2.03;;;;;;;24.46;44.68;100843.19;21132185;28;20047;-65
2023/10/10 09:30:34;;;;;;;2.20;1.88;;;;;;;24.47;44.88;100844.03;21163145;28;20543;-64
2023/10/10 09:40:39;;;;;;;1.85;1.75;;;;;;;24.44;44.90;100853.84;21162163;27;20039;-64
2023/10/10 09:50:51;;;;;;;1.55;1.45;;;;;;;24.43;44.69;100859.78;21161098;28;20036;-63
2023/10/10 10:00:54;;;;;;;2.50;2.30;;;;;;;24.43;44.70;100868.16;21161115;28;20105;-64
2023/10/10 10:11:11;;;;;;;2.45;1.73;;;;;;;24.38;44.87;100868.25;21112900;28;20044;-64
2023/10/10 10:21:30;;;;;;;1.90;1.70;;;;;;;24.34;45.03;100894.00;21150887;28;20043;-64
2023/10/10 10:31:36;;;;;;;2.03;1.70;;;;;;;24.38;44.96;100910.19;21120283;28;20047;-65
2023/10/10 10:41:42;;;;;;;1.73;1.63;;;;;;;24.39;44.90;100911.84;21146179;28;20491;-65
2023/10/10 10:51:49;;;;;;;2.45;2.10;;;;;;;24.35;44.85;100920.00;21139621;28;20043;-64
2023/10/10 11:01:52;;;;;;;1.70;1.60;;;;;;;24.35;44.87;100917.19;21122452;28;20362;-65
2023/10/10 11:11:58;;;;;;;1.85;1.48;;;;;;;24.30;45.08;100914.47;21168151;27;20112;-67
2023/10/10 11:22:01;;;;;;;2.05;1.63;;;;;;;24.33;45.06;100928.69;21173024;27;20028;-64
2023/10/10 11:32:08;;;;;;;3.42;1.65;;;;;;;24.33;45.17;100937.09;21146428;28;20101;-64
2023/10/10 11:42:13;;;;;;;1.60;1.40;;;;;;;24.34;45.28;100944.34;21113710;28;20032;-65
2023/10/10 11:52:19;;;;;;;3.47;1.80;;;;;;;24.33;45.30;100947.44;21106134;28;20047;-65
2023/10/10 12:02:29;;;;;;;6.53;2.00;;;;;;;24.32;45.15;100940.16;21161440;28;20036;-66
2023/10/10 12:12:31;;;;;;;3.95;1.70;;;;;;;24.31;45.44;100955.28;21168527;28;20502;-66
2023/10/10 12:22:33;;;;;;;2.88;1.95;;;;;;;24.28;45.26;100951.16;21165399;28;20031;-66
2023/10/10 12:32:34;;;;;;;3.45;1.98;;;;;;;24.30;45.29;100970.41;21167369;28;20044;-65
2023/10/10 12:42:35;;;;;;;3.92;2.00;;;;;;;24.21;45.42;100956.28;21166392;28;20360;-65
2023/10/10 12:52:46;;;;;;;4.15;2.13;;;;;;;24.25;45.55;100946.16;21164831;28;20035;-66
2023/10/10 13:02:47;;;;;;;2.90;1.77;;;;;;;24.27;45.44;101005.38;21164983;28;20036;-65
2023/10/10 13:12:52;;;;;;;3.63;1.92;;;;;;;24.26;45.25;101009.34;21164221;28;20375;-66
2023/10/10 13:22:55;;;;;;;2.58;1.70;;;;;;;24.26;45.43;101005.72;21163904;28;20044;-66
2023/10/10 13:32:56;;;;;;;2.55;1.85;;;;;;;24.26;45.39;101002.91;21162436;28;20044;-66
2023/10/10 13:42:59;;;;;;;1.83;1.67;;;;;;;24.25;45.56;101013.25;21162666;28;20367;-66
2023/10/10 13:53:04;;;;;;;1.88;1.60;;;;;;;24.09;45.38;100992.25;21161608;28;20036;-66
2023/10/10 14:03:06;;;;;;;3.00;1.73;;;;;;;24.21;45.44;101003.81;21160777;28;20039;-65
2023/10/10 14:13:19;;;;;;;5.07;1.85;;;;;;;24.24;45.26;101013.59;21160415;28;20325;-66
2023/10/10 14:23:24;;;;;;;1.90;1.70;;;;;;;24.22;45.53;101007.44;21160120;28;20119;-66
2023/10/10 14:33:26;;;;;;;2.10;1.80;;;;;;;24.22;45.34;101013.84;21160007;28;20051;-65
2023/10/10 14:43:27;;;;;;;3.20;1.73;;;;;;;24.20;45.69;101007.75;21172334;28;20027;-66
2023/10/10 14:53:34;;;;;;;1.98;1.77;;;;;;;24.24;45.36;101003.22;21174952;28;20035;-65
2023/10/10 15:03:41;;;;;;;7.93;2.00;;;;;;;24.05;45.37;100952.03;21174568;28;20035;-65
2023/10/10 15:13:42;;;;;;;2.17;1.42;;;;;;;24.28;45.41;100972.66;21173765;28;20108;-66
2023/10/10 15:23:46;;;;;;;2.05;1.75;;;;;;;24.30;45.21;100965.66;21172879;28;20035;-67
2023/10/10 15:33:47;;;;;;;1.98;1.73;;;;;;;24.26;45.30;100947.81;21171986;28;20043;-66
2023/10/10 15:43:49;;;;;;;1.55;1.45;;;;;;;24.22;45.44;100941.16;21170245;28;20031;-66
2023/10/10 15:53:53;;;;;;;2.97;1.65;;;;;;;24.33;45.33;100941.84;21170360;28;20129;-66
2023/10/10 16:03:59;;;;;;;2.38;1.60;;;;;;;24.36;45.29;100938.44;21169408;28;20552;-66
2023/10/10 16:14:14;;;;;;;2.08;1.70;;;;;;;24.35;45.24;100937.59;21169249;28;20051;-66
2023/10/10 16:24:16;;;;;;;1.55;1.42;;;;;;;24.38;45.18;100932.56;21166603;28;20035;-66
2023/10/10 16:34:17;;;;;;;1.83;1.52;;;;;;;24.39;45.22;100928.63;21166787;28;20040;-67
2023/10/10 16:44:20;;;;;;;1.83;1.65;;;;;;;24.39;45.11;100901.50;21166972;28;20466;-66
2023/10/10 16:54:22;;;;;;;1.95;1.70;;;;;;;24.40;45.13;100875.19;21165814;28;20040;-66
2023/10/10 17:04:24;;;;;;;1.83;1.60;;;;;;;24.42;44.88;100858.09;21164864;28;20047;-65
2023/10/10 17:14:29;;;;;;;1.65;1.42;;;;;;;24.43;45.01;100857.78;21164406;28;20043;-66
2023/10/10 17:24:31;;;;;;;1.92;1.58;;;;;;;24.42;44.93;100835.72;21163390;28;20056;-66
2023/10/10 17:34:35;;;;;;;1.63;1.50;;;;;;;24.40;44.79;100812.81;21162559;28;20478;-67
2023/10/10 17:44:37;;;;;;;1.58;1.48;;;;;;;24.42;44.62;100799.34;21161938;28;20116;-66
2023/10/10 17:54:39;;;;;;;2.33;1.55;;;;;;;24.45;44.66;100776.38;21161346;28;20048;-67
2023/10/10 18:04:41;;;;;;;1.77;1.67;;;;;;;24.47;44.57;100771.31;21160444;28;20096;-66
2023/10/10 18:14:43;;;;;;;1.40;1.30;;;;;;;24.47;44.42;100762.91;21159269;28;20044;-66
2023/10/10 18:24:46;;;;;;;1.73;1.50;;;;;;;24.49;44.42;100755.03;21159776;28;20039;-67
2023/10/10 18:34:48;;;;;;;1.75;1.58;;;;;;;24.51;44.77;100748.00;21159481;28;20547;-66
2023/10/10 18:44:49;;;;;;;1.63;1.50;;;;;;;24.52;44.41;100752.44;21159049;28;20032;-66
2023/10/10 18:54:51;;;;;;;1.75;1.60;;;;;;;24.54;44.50;100738.16;21158935;28;20043;-66
2023/10/10 19:04:53;;;;;;;2.03;1.83;;;;;;;24.53;44.44;100744.88;21158312;28;20177;-66
2023/10/10 19:14:55;;;;;;;1.95;1.40;;;;;;;24.55;44.32;100749.00;21157926;28;20040;-67
2023/10/10 19:25:06;;;;;;;1.73;1.63;;;;;;;24.54;44.48;100735.34;21161852;28;20032;-66
2023/10/10 19:35:10;;;;;;;1.38;1.23;;;;;;;24.53;44.52;100744.88;21173670;28;20547;-65
2023/10/10 19:45:13;;;;;;;1.95;1.45;;;;;;;24.54;44.39;100750.16;21173206;28;20048;-66
2023/10/10 19:55:17;;;;;;;1.50;1.40;;;;;;;24.52;44.33;100748.81;21171312;28;20479;-66
2023/10/10 20:05:18;;;;;;;1.40;1.30;;;;;;;24.48;44.45;100743.03;21169203;28;20040;-65
2023/10/10 20:15:23;;;;;;;1.35;1.25;;;;;;;24.49;44.25;100743.84;21169889;28;20027;-66
2023/10/10 20:25:27;;;;;;;1.40;1.30;;;;;;;24.39;44.39;100744.06;21168893;28;20019;-66
2023/10/10 20:35:31;;;;;;;1.45;1.25;;;;;;;24.46;44.64;100755.66;21164004;28;20048;-67
2023/10/10 20:45:36;;;;;;;2.55;1.30;;;;;;;24.47;44.32;100754.53;21161670;28;20047;-66
2023/10/10 20:55:37;;;;;;;1.98;1.58;;;;;;;24.39;44.46;100750.47;21148728;28;20559;-65
2023/10/10 21:05:44;;;;;;;4.00;1.33;;;;;;;24.47;44.66;100772.13;21143316;28;20031;-64
2023/10/10 21:15:46;;;;;;;1.63;1.43;;;;;;;24.47;44.72;100774.94;21110461;28;20115;-65
2023/10/10 21:25:48;;;;;;;1.63;1.20;;;;;;;24.47;44.60;100768.50;21125251;28;20094;-65
2023/10/10 21:35:49;;;;;;;2.17;1.30;;;;;;;24.48;44.84;100772.97;21112776;28;20047;-62
2023/10/10 21:45:51;;;;;;;2.10;1.20;;;;;;;24.48;44.81;100770.16;21126325;28;20092;-63
2023/10/10 21:55:53;;;;;;;3.20;1.50;;;;;;;24.48;44.88;100772.97;21139526;28;20031;-63
2023/10/10 22:05:54;;;;;;;1.17;1.13;;;;;;;24.48;44.76;100781.34;21127161;28;20395;-63
2023/10/10 22:15:56;;;;;;;2.33;1.58;;;;;;;24.47;44.81;100790.88;21083400;28;20047;-63
2023/10/10 22:26:01;;;;;;;1.63;1.38;;;;;;;24.32;44.77;100795.56;21159043;28;20440;-64
2023/10/10 22:36:15;;;;;;;3.08;1.55;;;;;;;24.40;44.86;100812.81;21151652;28;20372;-62
2023/10/10 22:46:16;;;;;;;3.40;1.40;;;;;;;24.46;44.97;100828.38;21159577;28;20483;-64
2023/10/10 22:56:19;;;;;;;2.65;1.65;;;;;;;24.43;45.20;100834.59;21159105;28;20039;-63
2023/10/10 23:06:22;;;;;;;2.00;1.38;;;;;;;24.43;45.32;100841.03;21157986;28;20382;-63
2023/10/10 23:16:23;;;;;;;3.55;1.73;;;;;;;24.41;45.37;100848.03;21153587;28;20044;-64
2023/10/10 23:26:25;;;;;;;3.53;1.60;;;;;;;23.94;45.44;100783.69;21146015;28;20096;-63
2023/10/10 23:36:26;;;;;;;2.50;1.50;;;;;;;24.42;45.53;100866.47;21169559;28;20043;-62
2023/10/10 23:46:30;;;;;;;3.08;1.70;;;;;;;24.40;45.50;100868.75;21172572;28;20031;-63
2023/10/10 23:56:33;;;;;;;4.25;1.63;;;;;;;24.39;45.79;100864.31;21157101;28;20047;-63
